• Join FlightAware (Why Join?)
  • Login
  • US Flag 
06:46AM EDT


 

Airport Tracker/Info


-or-


 

Live Flight TrackerFlight Track Log ✈ EJA370 ✈ 16-May-2013 ✈ KMDW - KTEB

Flight Track Log - Related Links

Times and Time Zones

All times are in EDT time to prevent confusion due to time zone crossing. See the EJA370 flight status page for this flight to view local times or setup timezone preferences in your user account.

Time Position Orientation Groundspeed Altitude Reporting Facility
EDT Latitude Longitude Course Direction KTS MPH feet Rate Location/Type
10:12PM 41.8000 -87.7167 91° East 182 209 2,800  Level Chicago TRACON
10:13PM 41.8000 -87.6333 90° East 206 237 3,000 60 Climbing Chicago TRACON
10:14PM 41.8106 -87.5706 77° East 199 229 3,000 1,800 Level Chicago Center
10:15PM 41.8136 -87.4958 87° East 202 232 6,500 4,140 Climbing Chicago Center
10:16PM 41.7992 -87.3906 100° East 267 307 11,500 4,320 Climbing Chicago Center
10:17PM 41.7858 -87.7284 91° East  Level Estimated
10:17PM 41.7869 -87.2783 98° East 294 338 15,400  Level Chicago Center
10:18PM 41.7928 -87.1464 87° East 345 397 18,000 2,640 Climbing Chicago Center
10:19PM 41.8081 -86.9725 83° East 386 444 20,900 2,580 Climbing Chicago Center
10:20PM 41.8208 -86.8178 84° East 411 473 23,300 2,160 Climbing Chicago Center
10:21PM 41.8331 -86.6836 83° East 424 488 25,400 2,400 Climbing Chicago Center
10:22PM 41.8494 -86.4850 84° East 443 510 28,300 2,400 Climbing Chicago Center
10:23PM 41.8650 -86.3192 83° East 446 513 30,400 1,980 Climbing Chicago Center
10:24PM 41.8794 -86.1508 83° East 452 520 32,400 1,260 Climbing Chicago Center
10:25PM 41.8925 -85.9794 84° East 458 527 33,000 780 Climbing Chicago Center
10:26PM 41.9075 -85.7978 84° East 480 552 34,100 1,500 Climbing Chicago Center
10:27PM 41.9225 -85.6222 83° East 475 547 36,100 1,920 Climbing Chicago Center
10:28PM 41.9364 -85.4508 84° East 461 531 38,100 1,860 Climbing Chicago Center
10:29PM 41.9478 -85.2844 85° East 446 513 40,000 1,380 Climbing Chicago Center
10:30PM 41.9519 -85.1189 88° East 441 507 41,000 480 Climbing Chicago Center
10:31PM 41.9497 -84.9500 91° East 448 516 41,000  Level Chicago Center
10:32PM 41.9494 -84.7781 90° East 458 527 41,000  Level Chicago Center
10:33PM 41.9483 -84.6094 90° East 455 524 41,000  Level Chicago Center
10:34PM 41.9464 -84.4106 91° East 446 513 41,000  Level Chicago Center
10:35PM 41.9447 -84.2433 91° East 448 516 41,000  Level Chicago Center
10:36PM 41.9436 -84.0761 90° East 448 516 41,000  Level Chicago Center
10:37PM 41.9372 -83.8967 93° East 446 513 41,000  Level Cleveland Center
10:38PM 41.9375 -83.7292 90° East 446 513 41,000  Level Cleveland Center
10:39PM 41.9317 -83.5586 93° East 446 513 41,000  Level Cleveland Center
10:40PM 41.9339 -83.3911 89° East 446 513 41,000  Level Cleveland Center
10:41PM 41.9314 -83.2375 91° East 446 513 41,000  Level Cleveland Center
10:42PM 41.9292 -83.0533 91° East 446 513 41,000  Level Cleveland Center
10:43PM 41.9283 -82.8886 90° East 446 513 41,000  Level Cleveland Center
10:44PM 41.9275 -82.7211 90° East 441 507 41,000  Level Cleveland Center
10:45PM 41.9261 -82.5592 91° East 441 507 41,000  Level Cleveland Center
10:46PM 41.9247 -82.3917 91° East 441 507 41,000  Level Cleveland Center
10:47PM 41.9211 -82.2214 92° East 441 507 41,000  Level Cleveland Center
10:48PM 41.9192 -82.0508 91° East 441 507 41,000  Level Cleveland Center
10:49PM 41.9172 -81.8806 91° East 452 520 41,000  Level Cleveland Center
10:50PM 41.9294 -81.7136 84° East 452 520 41,000  Level Cleveland Center
10:51PM 41.9497 -81.5436 81° East 457 526 41,000  Level Cleveland Center
10:52PM 41.9675 -81.3761 82° East 457 526 41,000  Level Cleveland Center
10:53PM 41.9853 -81.2089 82° East 462 532 41,000  Level Cleveland Center
10:54PM 42.0006 -81.0608 82° East 462 532 41,000  Level Cleveland Center
10:55PM 42.0200 -80.8906 81° East 462 532 41,000  Level Cleveland Center
10:56PM 42.0350 -80.7231 83° East 457 526 41,000  Level Cleveland Center
10:57PM 42.0539 -80.5581 81° East 451 519 41,000  Level Cleveland Center
10:58PM 42.0683 -80.3958 83° East 444 511 41,000  Level Cleveland Center
10:59PM 42.0867 -80.2278 82° East 444 511 41,000  Level Cleveland Center
11:00PM 42.1025 -80.0431 83° East 451 519 41,000  Level Cleveland Center
11:01PM 42.1203 -79.8778 82° East 451 519 41,000  Level Cleveland Center
11:02PM 42.1214 -79.7069 89° East 451 519 41,000  Level Cleveland Center
11:03PM 42.0969 -79.5311 101° East 453 521 41,000  Level Cleveland Center
11:04PM 42.0744 -79.3581 100° East 466 536 41,000  Level Cleveland Center
11:05PM 42.0494 -79.1822 101° East 472 543 41,000 -660 Level Cleveland Center
11:06PM 42.0264 -79.0039 100° East 472 543 39,700 -1,500 Descending Cleveland Center
11:07PM 42.0006 -78.8200 101° East 485 558 38,100 -900 Descending Cleveland Center
11:08PM 41.9769 -78.6419 100° East 490 564 38,000 -180 Descending Cleveland Center
11:09PM 41.9508 -78.4642 101° East 484 557 37,800 -840 Descending Cleveland Center
11:10PM 41.9267 -78.2861 100° East 484 557 36,400 -1,440 Descending Cleveland Center
11:11PM 41.8997 -78.1003 101° East 489 563 35,000 -720 Descending Cleveland Center
11:12PM 41.8744 -77.9297 101° East 493 567 35,000  Level New York Center
11:13PM 41.8444 -77.7678 104° East 481 554 35,000  Level New York Center
11:14PM 41.7958 -77.5986 111° Southeast 486 559 35,000  Level New York Center
11:15PM 41.7514 -77.4272 109° East 491 565 35,000 -660 Level New York Center
11:16PM 41.7031 -77.2472 110° East 502 578 33,700 -1,440 Descending New York Center
11:17PM 41.6544 -77.0650 110° East 508 585 32,200 -4,860 Descending New York Center
11:18PM 41.6058 -76.8828 110° East 518 596 24,000 -1,920 Descending New York Center
11:19PM 41.5544 -76.7006 111° Southeast 523 602 28,500  Climbing New York Center
11:20PM 41.5069 -76.5244 110° East 516 594 24,000 -1,800 Descending New York Center
11:21PM 41.4572 -76.3431 110° East 497 572 24,900 -360 Climbing New York Center
11:22PM 41.4111 -76.1733 110° East 487 560 23,400 -1,560 Descending New York Center
11:23PM 41.3622 -76.0092 112° Southeast 476 548 21,900 -1,500 Descending New York Center
11:24PM 41.3169 -75.8508 111° Southeast 460 529 20,400 -1,440 Descending New York Center
11:25PM 41.2717 -75.6900 110° East 460 529 19,000 -1,800 Descending New York Center
11:26PM 41.2236 -75.5403 113° Southeast 455 524 16,800 -2,400 Descending New York Center
11:27PM 41.1828 -75.4161 114° Southeast 421 484 14,200 -2,700 Descending New York Center
11:28PM 41.1361 -75.2781 114° Southeast 394 453 11,500 -2,460 Descending New York Center
11:29PM 41.0964 -75.1653 115° Southeast 350 403 9,300 -1,980 Descending New York Center
11:30PM 41.0628 -75.0639 114° Southeast 313 360 7,500 -1,680 Descending New York Center
11:31PM 41.0325 -74.9742 114° Southeast 297 342 6,000 -840 Descending New York Center
11:32PM 40.9928 -74.8617 115° Southeast 297 342 5,900 -840 Descending New York Center
11:33PM 40.9525 -74.7658 119° Southeast 303 349 4,400 -1,260 Descending New York Center
11:34PM 40.9075 -74.6725 123° Southeast 303 349 3,400 -720 Descending New York Center
11:35PM 40.8647 -74.5850 123° Southeast 296 341 3,000 -300 Descending New York Center
11:36PM 40.8333 -74.5167 121° Southeast 288 331 3,000  Level New York TRACON
11:37PM 40.8000 -74.4333 118° Southeast 287 330 3,000 -300 Level New York TRACON
11:38PM 40.7500 -74.3500 128° Southeast 270 311 2,500 -540 Descending New York TRACON
11:39PM 40.7500 -74.2667 90° East 208 239 2,000 -300 Descending New York TRACON
11:40PM 40.7500 -74.2000 90° East 193 222 2,000 -300 Level New York TRACON
11:41PM 40.7833 -74.1667 37° Northeast 175 201 1,500 -480 Descending New York TRACON
11:41PM 40.8167 -74.1167 49° Northeast 135 155 1,100 -540 Descending New York TRACON
11:42PM 40.8333 -74.1000 37° Northeast 115 132 500 1,920 Descending New York TRACON
11:44PM 40.8639 -74.0528 49° Northeast 114 131 6,000 2,160 Climbing New York Center
11:45PM 40.8856 -74.0264 43° Northeast 114 131 6,000  Level New York Center
11:46PM 40.9069 -74.0000 43° Northeast 114 131 6,000  Level New York Center
11:47PM 40.9286 -73.9733 43° Northeast 114 131 6,000  Level New York Center
11:48PM 40.9331 -73.9683 40° Northeast 114 131 6,000  Level New York Center